Time;durP1;ratioP1;P1;durP2;ratioP2;P2;SDS_P1;SDS_P2;PMS_P1;PMS_P2;Temp;Humidity;BMP_temperature;BMP_pressure;BME280_temperature;BME280_humidity;BME280_pressure;Samples;Min_cycle;Max_cycle;Signal;HPM_P1;HPM_P2
2023/10/15 00:00:18;;;;;;;2.83;0.80;;;19.90;67.60;;;;;;5031019;28;20384;-48
2023/10/15 00:02:47;;;;;;;3.33;1.00;;;19.90;67.50;;;;;;5033720;28;20037;-46
2023/10/15 00:05:17;;;;;;;2.42;0.95;;;19.90;67.60;;;;;;5037144;28;20056;-48
2023/10/15 00:07:44;;;;;;;2.03;0.77;;;19.90;67.50;;;;;;5034779;28;20029;-51
2023/10/15 00:10:20;;;;;;;1.65;0.77;;;19.80;67.60;;;;;;5035235;28;20470;-47
2023/10/15 00:12:48;;;;;;;2.78;0.85;;;19.80;67.40;;;;;;5033885;28;20037;-51
2023/10/15 00:15:18;;;;;;;2.63;1.17;;;19.80;67.50;;;;;;5040312;28;20104;-48
2023/10/15 00:17:44;;;;;;;1.48;0.80;;;19.80;67.50;;;;;;5037994;28;20164;-49
2023/10/15 00:20:16;;;;;;;2.40;0.80;;;19.80;67.50;;;;;;5037998;28;20041;-51
2023/10/15 00:22:44;;;;;;;1.10;0.60;;;19.80;67.50;;;;;;5035401;28;20693;-49
2023/10/15 00:25:13;;;;;;;2.58;0.60;;;19.80;67.60;;;;;;5034842;28;20060;-49
2023/10/15 00:27:42;;;;;;;1.67;0.95;;;19.80;67.50;;;;;;5031489;28;20714;-48
2023/10/15 00:30:18;;;;;;;1.17;0.60;;;19.80;67.40;;;;;;5030432;28;20029;-47
2023/10/15 00:32:45;;;;;;;1.88;0.60;;;19.80;67.60;;;;;;5040769;28;20037;-47
2023/10/15 00:35:13;;;;;;;1.88;0.70;;;19.80;67.50;;;;;;5039973;28;20028;-48
2023/10/15 00:37:46;;;;;;;2.42;0.75;;;19.80;67.50;;;;;;5039292;28;20025;-48
2023/10/15 00:40:16;;;;;;;1.55;0.70;;;19.80;67.40;;;;;;5027926;28;20024;-50
2023/10/15 00:42:43;;;;;;;1.80;0.75;;;19.80;67.30;;;;;;5032754;28;20037;-48
2023/10/15 00:45:10;;;;;;;1.92;0.90;;;19.80;67.60;;;;;;5038437;28;20029;-48
2023/10/15 00:47:36;;;;;;;1.35;0.60;;;19.80;67.50;;;;;;5035869;28;20028;-48
2023/10/15 00:50:07;;;;;;;1.52;0.55;;;19.80;67.60;;;;;;5002340;28;1039926;-47
2023/10/15 00:52:42;;;;;;;1.67;0.70;;;19.80;67.50;;;;;;5037592;28;20029;-48
2023/10/15 00:55:16;;;;;;;1.65;0.70;;;19.70;67.30;;;;;;5037264;28;20021;-53
2023/10/15 00:57:46;;;;;;;1.80;0.60;;;19.80;67.50;;;;;;5033347;28;20041;-47
2023/10/15 01:02:57;;;;;;;1.00;0.50;;;19.70;67.50;;;;;;5031949;28;20052;-47
2023/10/15 01:05:26;;;;;;;2.85;0.70;;;19.80;67.40;;;;;;5048153;28;20033;-48
2023/10/15 01:07:54;;;;;;;2.08;0.80;;;19.70;67.50;;;;;;5038039;28;20049;-48
2023/10/15 01:10:32;;;;;;;2.25;0.70;;;19.70;67.30;;;;;;5034040;28;20249;-50
2023/10/15 01:13:05;;;;;;;1.63;0.60;;;19.70;67.40;;;;;;5031965;28;20120;-49
2023/10/15 01:15:35;;;;;;;2.47;0.90;;;19.70;67.40;;;;;;5032115;28;20130;-47
2023/10/15 01:18:07;;;;;;;1.10;0.50;;;19.70;67.30;;;;;;5036249;28;20033;-47
2023/10/15 01:20:36;;;;;;;1.92;0.60;;;19.70;67.30;;;;;;5035641;28;20037;-49
2023/10/15 01:23:02;;;;;;;1.92;0.60;;;19.70;67.40;;;;;;5034560;28;20150;-48
2023/10/15 01:25:32;;;;;;;2.03;0.70;;;19.70;67.50;;;;;;5032114;28;20033;-49
2023/10/15 01:28:00;;;;;;;1.25;0.65;;;19.70;67.40;;;;;;5031303;28;20494;-48
2023/10/15 01:30:27;;;;;;;0.93;0.60;;;19.70;67.50;;;;;;5031914;28;20541;-49
2023/10/15 01:32:54;;;;;;;1.30;0.50;;;19.70;67.30;;;;;;5026959;28;20125;-51
2023/10/15 01:35:20;;;;;;;1.25;0.55;;;19.70;67.30;;;;;;5036956;28;20553;-48
2023/10/15 01:37:59;;;;;;;1.60;0.60;;;19.70;67.30;;;;;;5027829;28;20117;-48
2023/10/15 01:40:38;;;;;;;2.25;0.65;;;19.70;67.30;;;;;;5035918;28;20052;-51
2023/10/15 01:43:22;;;;;;;1.33;0.65;;;19.70;67.40;;;;;;5037401;28;20142;-50
2023/10/15 01:45:48;;;;;;;1.88;0.80;;;19.70;67.40;;;;;;5036755;28;20516;-49
2023/10/15 01:48:24;;;;;;;1.45;0.80;;;19.70;67.30;;;;;;5051038;28;20028;-50
2023/10/15 01:50:50;;;;;;;1.13;0.50;;;19.70;67.40;;;;;;5033125;28;21396;-48
2023/10/15 01:53:16;;;;;;;1.15;0.50;;;19.70;67.40;;;;;;5031599;28;20069;-47
2023/10/15 01:55:52;;;;;;;0.80;0.43;;;19.70;67.40;;;;;;5031787;28;20040;-49
2023/10/15 01:58:30;;;;;;;1.50;0.75;;;19.70;67.50;;;;;;5034926;28;20032;-49
2023/10/15 02:00:55;;;;;;;2.47;0.90;;;19.70;67.40;;;;;;5031457;28;20041;-49
2023/10/15 02:03:21;;;;;;;1.20;0.60;;;19.60;67.20;;;;;;5032720;28;20041;-48
2023/10/15 02:05:47;;;;;;;2.13;1.35;;;19.70;67.50;;;;;;5033693;28;20030;-47
2023/10/15 02:08:23;;;;;;;1.25;0.60;;;19.70;67.50;;;;;;5020551;28;20025;-48
2023/10/15 02:10:49;;;;;;;1.88;0.98;;;19.70;67.30;;;;;;5026640;28;20026;-47
2023/10/15 02:13:19;;;;;;;1.63;0.65;;;19.60;67.30;;;;;;5036099;28;20075;-48
2023/10/15 02:15:49;;;;;;;1.83;0.65;;;19.60;67.40;;;;;;5033781;28;20857;-51
2023/10/15 02:18:17;;;;;;;2.03;0.70;;;19.60;67.40;;;;;;5048693;28;25104;-49
2023/10/15 02:21:00;;;;;;;1.33;0.70;;;19.60;67.30;;;;;;5026939;28;20451;-51
2023/10/15 02:23:26;;;;;;;1.92;0.60;;;19.60;68.00;;;;;;5032396;28;20091;-48
2023/10/15 02:25:58;;;;;;;2.88;0.93;;;19.60;67.30;;;;;;5032580;28;20728;-47
2023/10/15 02:28:27;;;;;;;1.42;0.70;;;19.60;67.20;;;;;;5050337;28;20045;-49
2023/10/15 02:31:14;;;;;;;1.30;0.60;;;19.60;67.40;;;;;;5025556;28;20118;-48
2023/10/15 02:33:39;;;;;;;1.58;0.50;;;19.60;67.40;;;;;;5041737;28;20044;-48
2023/10/15 02:36:09;;;;;;;2.63;1.02;;;19.60;67.40;;;;;;5037526;28;20029;-48
2023/10/15 02:38:36;;;;;;;3.03;0.50;;;19.60;67.20;;;;;;5037301;28;20500;-48
2023/10/15 02:41:08;;;;;;;2.05;0.88;;;19.60;67.20;;;;;;5038405;28;20064;-49
2023/10/15 02:43:40;;;;;;;1.30;0.60;;;19.60;67.40;;;;;;5034557;28;20029;-48
2023/10/15 02:46:22;;;;;;;1.33;0.57;;;19.60;67.30;;;;;;5034960;28;20037;-51
2023/10/15 02:48:54;;;;;;;1.88;0.82;;;19.50;67.20;;;;;;5031202;28;20088;-49
2023/10/15 02:51:24;;;;;;;1.38;0.70;;;19.60;67.30;;;;;;5031552;28;20068;-48
2023/10/15 02:53:52;;;;;;;2.28;0.60;;;19.50;67.30;;;;;;5030971;28;20037;-50
2023/10/15 02:56:18;;;;;;;1.67;0.85;;;19.50;67.10;;;;;;5033306;28;20029;-47
2023/10/15 02:58:47;;;;;;;0.90;0.50;;;19.50;67.20;;;;;;5033166;28;20098;-49
2023/10/15 03:01:17;;;;;;;1.10;0.70;;;19.50;67.20;;;;;;5029732;28;20030;-49
2023/10/15 03:04:07;;;;;;;0.90;0.50;;;19.50;67.30;;;;;;5029194;28;20025;-49
2023/10/15 03:06:34;;;;;;;1.20;0.60;;;19.50;67.90;;;;;;5029073;28;20051;-49
2023/10/15 03:09:00;;;;;;;1.98;0.70;;;19.50;67.20;;;;;;5029076;28;20033;-49
2023/10/15 03:11:31;;;;;;;2.25;0.70;;;19.50;67.20;;;;;;5035205;28;20035;-52
2023/10/15 03:14:00;;;;;;;1.88;0.60;;;19.50;67.30;;;;;;5029610;28;20033;-50
2023/10/15 03:16:31;;;;;;;1.55;0.45;;;19.50;67.20;;;;;;5035278;28;20037;-48
2023/10/15 03:18:57;;;;;;;1.95;0.63;;;19.50;67.10;;;;;;5030970;28;20103;-49
2023/10/15 03:21:26;;;;;;;1.30;0.60;;;19.50;67.20;;;;;;5029963;28;20040;-51
2023/10/15 03:23:58;;;;;;;1.50;0.60;;;19.50;67.30;;;;;;5030879;28;20090;-48
2023/10/15 03:26:34;;;;;;;2.10;0.88;;;19.50;67.30;;;;;;5033425;28;20029;-49
2023/10/15 03:29:13;;;;;;;2.03;0.60;;;19.50;67.20;;;;;;5038041;28;20196;-50
2023/10/15 03:31:45;;;;;;;1.67;0.70;;;19.50;67.20;;;;;;5028381;28;20485;-48
2023/10/15 03:36:50;;;;;;;2.33;0.70;;;19.50;67.10;;;;;;5033130;28;20025;-48
2023/10/15 03:39:24;;;;;;;2.35;0.68;;;19.50;67.20;;;;;;5030192;28;20044;-47
2023/10/15 03:41:52;;;;;;;1.48;0.47;;;19.50;67.20;;;;;;5031688;28;20037;-49
2023/10/15 03:44:27;;;;;;;2.05;0.80;;;19.50;67.20;;;;;;5031777;28;20869;-49
2023/10/15 03:46:54;;;;;;;1.08;0.80;;;19.50;67.20;;;;;;5029933;28;20037;-48
2023/10/15 03:49:27;;;;;;;1.95;0.98;;;19.50;67.30;;;;;;5031668;28;20029;-48
2023/10/15 03:51:53;;;;;;;1.40;0.70;;;19.40;67.20;;;;;;5026998;28;20030;-49
2023/10/15 03:54:22;;;;;;;1.35;0.60;;;19.40;67.10;;;;;;5032963;28;20371;-48
2023/10/15 03:56:48;;;;;;;1.67;0.57;;;19.40;67.20;;;;;;5027274;28;20086;-49
2023/10/15 03:59:14;;;;;;;1.30;0.47;;;19.40;67.10;;;;;;5027613;28;20403;-51
2023/10/15 04:01:47;;;;;;;1.02;0.40;;;19.40;67.20;;;;;;5029491;28;20030;-47
2023/10/15 04:04:16;;;;;;;1.73;0.70;;;19.40;67.20;;;;;;5030566;28;20033;-48
2023/10/15 04:06:42;;;;;;;2.67;0.60;;;19.40;67.20;;;;;;5037475;28;20140;-49
2023/10/15 04:11:42;;;;;;;2.35;0.77;;;19.40;67.20;;;;;;5029228;28;20131;-46
2023/10/15 04:14:28;;;;;;;;;;;19.40;67.00;;;;;;5032272;28;20032;-49
2023/10/15 04:16:57;;;;;;;0.90;0.52;;;19.40;67.10;;;;;;5036611;28;19915;-47
2023/10/15 04:19:25;;;;;;;1.20;0.52;;;19.40;67.20;;;;;;5034129;28;20033;-49
2023/10/15 04:21:52;;;;;;;1.48;0.50;;;19.40;67.10;;;;;;5029449;28;20034;-50
2023/10/15 04:24:28;;;;;;;1.52;0.68;;;19.40;67.10;;;;;;5032124;28;20035;-50
2023/10/15 04:26:54;;;;;;;2.92;0.98;;;19.40;67.20;;;;;;5032263;28;20516;-48
2023/10/15 04:29:21;;;;;;;1.55;0.82;;;19.40;67.20;;;;;;5044159;28;20029;-50
2023/10/15 04:32:08;;;;;;;1.83;0.60;;;19.40;67.20;;;;;;5031498;28;20036;-50
2023/10/15 04:34:37;;;;;;;2.80;0.95;;;19.40;67.00;;;;;;5028013;28;20139;-49
2023/10/15 04:37:11;;;;;;;1.17;0.50;;;19.30;67.10;;;;;;5032041;28;20033;-49
2023/10/15 04:39:48;;;;;;;1.50;0.70;;;19.30;67.10;;;;;;5035193;28;20039;-47
2023/10/15 04:42:21;;;;;;;1.40;0.75;;;19.30;67.00;;;;;;5029612;28;20033;-48
2023/10/15 04:44:47;;;;;;;1.25;0.50;;;19.30;67.00;;;;;;5031069;28;20041;-48
2023/10/15 04:47:18;;;;;;;1.17;0.60;;;19.30;67.00;;;;;;5029170;28;20769;-49
2023/10/15 04:49:47;;;;;;;1.52;0.60;;;19.30;67.20;;;;;;5035499;28;20036;-50
2023/10/15 04:52:18;;;;;;;1.48;0.60;;;19.30;67.00;;;;;;5031338;28;20041;-51
2023/10/15 04:54:44;;;;;;;1.50;0.60;;;19.30;66.90;;;;;;5034446;28;20668;-48
2023/10/15 04:57:10;;;;;;;1.77;0.80;;;19.40;67.00;;;;;;5033640;28;20037;-50
2023/10/15 04:59:36;;;;;;;1.02;0.65;;;19.30;67.00;;;;;;5031794;28;20029;-47
2023/10/15 05:02:02;;;;;;;0.95;0.43;;;19.30;67.10;;;;;;5031812;28;20137;-47
2023/10/15 05:04:28;;;;;;;2.00;0.90;;;19.30;67.00;;;;;;5035099;28;20076;-48
2023/10/15 05:06:54;;;;;;;1.95;0.70;;;19.30;67.20;;;;;;5033429;28;20052;-48
2023/10/15 05:09:22;;;;;;;0.85;0.40;;;19.30;67.10;;;;;;5033642;28;20532;-48
2023/10/15 05:11:52;;;;;;;3.17;0.88;;;19.30;66.90;;;;;;5033479;28;21024;-47
2023/10/15 05:14:18;;;;;;;1.10;0.82;;;19.30;67.00;;;;;;5035005;28;20111;-53
2023/10/15 05:16:46;;;;;;;2.00;0.73;;;19.30;67.00;;;;;;5030516;28;20265;-47
2023/10/15 05:19:19;;;;;;;2.03;0.70;;;19.30;67.30;;;;;;5030195;28;20134;-48
2023/10/15 05:21:46;;;;;;;1.13;0.70;;;19.30;67.20;;;;;;5029861;28;20034;-49
2023/10/15 05:24:18;;;;;;;1.73;0.80;;;19.40;67.10;;;;;;5030388;28;20525;-46
2023/10/15 05:26:50;;;;;;;1.73;0.80;;;19.40;67.00;;;;;;5025571;28;20036;-48
2023/10/15 05:29:15;;;;;;;1.48;0.93;;;19.40;66.90;;;;;;5031476;28;20515;-49
2023/10/15 05:31:42;;;;;;;1.23;0.50;;;19.50;66.90;;;;;;5033737;28;20411;-48
2023/10/15 05:34:08;;;;;;;1.50;0.70;;;19.40;65.00;;;;;;5029140;28;20167;-46
2023/10/15 05:36:35;;;;;;;2.90;0.93;;;19.20;65.10;;;;;;5034731;28;20112;-50
2023/10/15 05:39:02;;;;;;;4.18;0.90;;;19.10;64.50;;;;;;5033939;28;20033;-49
2023/10/15 05:41:31;;;;;;;2.50;0.60;;;19.00;64.50;;;;;;5027315;28;20555;-47
2023/10/15 05:43:57;;;;;;;2.65;0.70;;;19.00;64.20;;;;;;5032153;28;20045;-52
2023/10/15 05:46:22;;;;;;;4.40;1.13;;;18.90;64.20;;;;;;5030651;28;20036;-47
2023/10/15 05:48:48;;;;;;;4.80;0.95;;;18.90;64.00;;;;;;5030157;28;20029;-49
2023/10/15 05:51:13;;;;;;;5.50;1.00;;;18.80;64.10;;;;;;5025829;28;20418;-47
2023/10/15 05:53:39;;;;;;;3.78;1.13;;;18.80;63.60;;;;;;5030739;28;20089;-51
2023/10/15 05:56:05;;;;;;;4.93;1.73;;;18.80;63.40;;;;;;5033229;28;20502;-46
2023/10/15 05:58:31;;;;;;;3.92;1.60;;;18.70;64.10;;;;;;5032290;28;20025;-47
2023/10/15 06:00:57;;;;;;;2.83;1.00;;;18.70;63.90;;;;;;5033615;28;20028;-49
2023/10/15 06:03:23;;;;;;;3.47;1.15;;;18.70;64.30;;;;;;5032548;28;20033;-49
2023/10/15 06:05:49;;;;;;;4.88;1.75;;;18.70;63.90;;;;;;5035662;28;20037;-48
2023/10/15 06:08:14;;;;;;;1.83;0.77;;;18.70;63.90;;;;;;5035003;28;20034;-47
2023/10/15 06:10:40;;;;;;;3.20;1.40;;;18.70;63.20;;;;;;5053076;28;20034;-47
2023/10/15 06:13:06;;;;;;;4.82;1.17;;;18.70;63.40;;;;;;5034562;28;20440;-48
2023/10/15 06:15:31;;;;;;;4.03;1.00;;;18.60;63.30;;;;;;5039258;28;20457;-50
2023/10/15 06:17:58;;;;;;;3.80;1.23;;;18.60;63.20;;;;;;5031179;28;20060;-50
2023/10/15 06:20:25;;;;;;;3.28;1.45;;;18.60;62.80;;;;;;5036712;28;20092;-47
2023/10/15 06:22:55;;;;;;;2.72;1.23;;;18.60;63.80;;;;;;5034435;28;20036;-49
2023/10/15 06:25:21;;;;;;;3.13;1.23;;;18.60;63.10;;;;;;5034499;28;20573;-50
2023/10/15 06:27:46;;;;;;;5.78;1.67;;;18.60;63.30;;;;;;5034822;28;20052;-48
2023/10/15 06:30:16;;;;;;;4.03;1.48;;;18.50;63.00;;;;;;5032397;28;20049;-46
2023/10/15 06:32:49;;;;;;;4.45;1.30;;;18.50;62.80;;;;;;5034531;28;20029;-51
2023/10/15 06:35:19;;;;;;;4.47;1.25;;;18.60;63.30;;;;;;5034117;28;20112;-53
2023/10/15 06:37:48;;;;;;;3.60;1.20;;;18.50;62.90;;;;;;5038245;28;20403;-48
2023/10/15 06:40:15;;;;;;;3.03;0.90;;;18.60;63.00;;;;;;5032714;28;20033;-47
2023/10/15 06:42:42;;;;;;;5.43;1.73;;;18.60;63.80;;;;;;5031742;28;20025;-48
2023/10/15 06:45:08;;;;;;;4.45;1.75;;;18.60;62.50;;;;;;5030471;28;20037;-48
2023/10/15 06:47:35;;;;;;;4.70;1.42;;;18.50;62.70;;;;;;5025822;28;20034;-47
2023/10/15 06:50:05;;;;;;;2.58;1.42;;;18.50;62.70;;;;;;5025915;28;20067;-47
2023/10/15 06:52:41;;;;;;;3.35;1.35;;;18.50;62.90;;;;;;5030867;28;20053;-46
2023/10/15 06:55:07;;;;;;;;;;;18.50;63.20;;;;;;5027779;28;20059;-48
2023/10/15 06:57:33;;;;;;;2.42;1.20;;;18.60;63.40;;;;;;5033462;28;19909;-48
2023/10/15 06:59:59;;;;;;;3.95;1.63;;;18.60;64.20;;;;;;5033902;28;20037;-47
2023/10/15 07:02:28;;;;;;;2.88;1.20;;;18.60;63.90;;;;;;5030794;28;20033;-48
2023/10/15 07:04:55;;;;;;;3.22;1.25;;;18.70;63.30;;;;;;5032475;28;20041;-52
2023/10/15 07:07:21;;;;;;;2.42;1.15;;;18.70;64.20;;;;;;5047191;28;20124;-48
2023/10/15 07:09:46;;;;;;;3.78;1.38;;;18.80;63.60;;;;;;5031414;28;22900;-47
2023/10/15 07:12:12;;;;;;;5.30;1.52;;;18.80;63.80;;;;;;5027552;28;20041;-47
2023/10/15 07:14:39;;;;;;;5.03;1.30;;;18.80;64.30;;;;;;5026734;28;20044;-47
2023/10/15 07:17:05;;;;;;;2.22;1.30;;;18.80;63.00;;;;;;5029900;28;21398;-47
2023/10/15 07:19:30;;;;;;;4.18;1.13;;;18.80;64.60;;;;;;5025826;28;20025;-48
2023/10/15 07:21:56;;;;;;;4.25;1.52;;;18.80;63.10;;;;;;5031390;28;20257;-48
2023/10/15 07:24:22;;;;;;;3.28;1.10;;;18.70;63.80;;;;;;5035902;28;20079;-48
2023/10/15 07:26:48;;;;;;;3.60;1.67;;;18.70;63.60;;;;;;5030081;28;20037;-48
2023/10/15 07:29:14;;;;;;;4.20;1.73;;;18.70;64.00;;;;;;5032220;28;20029;-48
2023/10/15 07:31:39;;;;;;;4.25;1.08;;;18.70;63.90;;;;;;5033441;28;20029;-49
2023/10/15 07:34:05;;;;;;;4.65;1.38;;;18.70;63.60;;;;;;5032813;28;20610;-49
2023/10/15 07:36:32;;;;;;;3.50;0.98;;;18.60;63.40;;;;;;5031633;28;20037;-50
2023/10/15 07:38:57;;;;;;;3.40;1.20;;;18.70;63.20;;;;;;5031818;28;20032;-47
2023/10/15 07:41:23;;;;;;;3.13;1.73;;;18.70;63.10;;;;;;5031878;28;20029;-49
2023/10/15 07:43:48;;;;;;;5.45;1.55;;;18.70;63.40;;;;;;5027715;28;20062;-47
2023/10/15 07:46:14;;;;;;;4.10;1.10;;;18.60;63.70;;;;;;5029078;28;20033;-47
2023/10/15 07:48:40;;;;;;;2.90;1.20;;;18.70;64.00;;;;;;5028532;28;20139;-52
2023/10/15 07:51:06;;;;;;;2.03;1.08;;;18.70;63.10;;;;;;5027905;28;20069;-50
2023/10/15 07:53:32;;;;;;;4.93;1.80;;;18.70;64.10;;;;;;5033345;28;20514;-48
2023/10/15 07:55:57;;;;;;;4.60;1.60;;;18.70;62.30;;;;;;5031995;28;20025;-49
2023/10/15 07:58:23;;;;;;;3.00;1.33;;;18.70;62.70;;;;;;5030957;28;20033;-47
2023/10/15 08:00:50;;;;;;;3.30;1.60;;;18.60;63.90;;;;;;5033276;28;20133;-47
2023/10/15 08:03:16;;;;;;;3.97;1.40;;;18.70;63.10;;;;;;5031624;28;20112;-51
2023/10/15 08:05:44;;;;;;;3.25;1.95;;;18.70;63.10;;;;;;5033490;28;20319;-48
2023/10/15 08:08:11;;;;;;;5.30;1.80;;;18.60;63.90;;;;;;5031342;28;20033;-48
2023/10/15 08:10:37;;;;;;;5.32;1.42;;;18.70;64.40;;;;;;5029164;28;20332;-50
2023/10/15 08:13:03;;;;;;;4.78;1.85;;;18.80;64.50;;;;;;5028115;28;20108;-47
2023/10/15 08:15:29;;;;;;;5.18;1.52;;;18.90;64.80;;;;;;5025558;28;20037;-47
2023/10/15 08:17:57;;;;;;;4.93;1.70;;;18.90;64.60;;;;;;5027831;28;20041;-49
2023/10/15 08:20:23;;;;;;;8.85;3.60;;;18.90;64.70;;;;;;5030241;28;20634;-48
2023/10/15 08:22:49;;;;;;;8.45;3.72;;;19.00;64.60;;;;;;5033209;28;20033;-50
2023/10/15 08:25:14;;;;;;;10.00;3.50;;;19.00;64.60;;;;;;5035574;28;20478;-51
2023/10/15 08:27:44;;;;;;;8.88;3.38;;;19.00;64.30;;;;;;5037073;28;20036;-48
2023/10/15 08:30:12;;;;;;;9.35;2.83;;;19.00;64.60;;;;;;5038103;28;20116;-48
2023/10/15 08:32:41;;;;;;;6.40;3.22;;;19.00;64.80;;;;;;5034636;28;20120;-49
2023/10/15 08:35:09;;;;;;;9.65;3.15;;;19.00;64.50;;;;;;5035361;28;20029;-53
2023/10/15 08:37:35;;;;;;;8.75;3.95;;;19.00;63.90;;;;;;5035295;28;20030;-47
2023/10/15 08:40:04;;;;;;;5.68;2.30;;;19.10;64.00;;;;;;5033114;28;20025;-50
2023/10/15 08:42:37;;;;;;;6.80;2.58;;;19.00;63.20;;;;;;5031187;28;20128;-52
2023/10/15 08:45:05;;;;;;;5.32;2.17;;;19.00;62.90;;;;;;5029604;28;20572;-49
2023/10/15 08:47:33;;;;;;;8.50;2.28;;;19.00;62.80;;;;;;5031283;28;20113;-48
2023/10/15 08:50:00;;;;;;;5.05;1.90;;;19.00;63.60;;;;;;5031717;28;20051;-50
2023/10/15 08:52:27;;;;;;;4.55;1.88;;;19.00;63.20;;;;;;5033030;28;20026;-52
2023/10/15 08:54:54;;;;;;;4.07;1.50;;;19.00;62.40;;;;;;5030663;28;20045;-47
2023/10/15 08:57:21;;;;;;;5.47;2.28;;;19.00;62.90;;;;;;5031266;28;20043;-48
2023/10/15 08:59:50;;;;;;;4.90;1.80;;;19.00;62.70;;;;;;5035913;28;20129;-46
2023/10/15 09:02:17;;;;;;;5.13;2.22;;;19.00;60.60;;;;;;5032858;28;20029;-47
2023/10/15 09:04:45;;;;;;;5.05;1.95;;;18.80;61.00;;;;;;5034439;28;20033;-49
2023/10/15 09:07:13;;;;;;;4.40;1.83;;;18.80;60.90;;;;;;5035766;28;20081;-49
2023/10/15 09:09:39;;;;;;;5.78;1.40;;;18.70;61.10;;;;;;5031231;28;20464;-46
2023/10/15 09:12:08;;;;;;;6.00;1.88;;;18.70;62.10;;;;;;5033166;28;20083;-48
2023/10/15 09:14:40;;;;;;;3.42;1.50;;;18.60;61.50;;;;;;5026246;28;21156;-50
2023/10/15 09:17:10;;;;;;;4.45;1.70;;;18.60;61.60;;;;;;5036412;28;20079;-50
2023/10/15 09:19:41;;;;;;;5.05;1.90;;;18.50;61.60;;;;;;5035989;28;20482;-48
2023/10/15 09:22:07;;;;;;;5.97;1.75;;;18.50;61.40;;;;;;5032672;28;20110;-50
2023/10/15 09:24:34;;;;;;;7.43;1.50;;;18.50;61.30;;;;;;5032652;28;20037;-49
2023/10/15 09:26:59;;;;;;;5.60;1.65;;;18.50;61.30;;;;;;5035399;28;20567;-46
2023/10/15 09:29:28;;;;;;;3.67;1.55;;;18.50;62.70;;;;;;5038156;28;20036;-46
2023/10/15 09:31:56;;;;;;;2.90;1.40;;;18.60;62.90;;;;;;5032675;28;20153;-52
2023/10/15 09:34:23;;;;;;;5.82;1.77;;;18.60;62.90;;;;;;5027376;28;20033;-51
2023/10/15 09:36:49;;;;;;;4.07;1.55;;;18.70;61.60;;;;;;5046292;28;20975;-50
2023/10/15 09:39:15;;;;;;;5.35;1.77;;;18.60;61.80;;;;;;5032776;28;20486;-49
2023/10/15 09:41:41;;;;;;;7.10;2.35;;;18.50;61.70;;;;;;5032733;28;20029;-47
2023/10/15 09:44:14;;;;;;;4.53;1.60;;;18.50;62.20;;;;;;5030217;28;20041;-47
2023/10/15 09:46:43;;;;;;;4.32;1.45;;;18.40;61.20;;;;;;5024797;28;20037;-48
2023/10/15 09:49:10;;;;;;;3.92;1.40;;;18.40;61.60;;;;;;5032601;28;20053;-49
2023/10/15 09:51:43;;;;;;;6.32;1.55;;;18.40;61.90;;;;;;5045808;23;20041;-46
2023/10/15 09:54:11;;;;;;;4.70;1.30;;;18.30;62.00;;;;;;5043110;28;20078;-48
2023/10/15 09:56:40;;;;;;;3.95;1.20;;;18.30;62.10;;;;;;5041690;28;20316;-48
2023/10/15 09:59:06;;;;;;;4.43;1.65;;;18.30;62.80;;;;;;5041283;28;20033;-47
2023/10/15 10:01:33;;;;;;;2.47;1.17;;;18.40;62.80;;;;;;5037423;28;20029;-47
2023/10/15 10:04:35;;;;;;;2.22;1.05;;;18.40;62.80;;;;;;5038201;28;20076;-48
2023/10/15 10:07:06;;;;;;;7.43;1.65;;;18.50;62.70;;;;;;5015656;28;20038;-47
2023/10/15 10:09:37;;;;;;;3.88;1.10;;;18.50;62.80;;;;;;5035492;28;20110;-48
2023/10/15 10:12:40;;;;;;;5.85;1.95;;;18.40;62.00;;;;;;5036708;28;20044;-47
2023/10/15 10:15:30;;;;;;;3.60;1.50;;;18.40;62.00;;;;;;5023012;28;20044;-48
2023/10/15 10:17:56;;;;;;;2.58;1.67;;;18.40;62.30;;;;;;5036557;28;20037;-45
2023/10/15 10:20:31;;;;;;;3.20;1.52;;;18.30;62.30;;;;;;5032926;28;20556;-48
2023/10/15 10:23:05;;;;;;;4.60;2.08;;;18.30;62.00;;;;;;5038241;28;20033;-47
2023/10/15 10:25:52;;;;;;;5.03;1.42;;;18.30;62.40;;;;;;5038757;28;20112;-46
2023/10/15 10:28:20;;;;;;;4.57;1.90;;;18.30;62.30;;;;;;5016530;28;20021;-49
2023/10/15 10:30:58;;;;;;;5.75;2.28;;;18.30;62.20;;;;;;5026156;28;20029;-47
2023/10/15 10:33:44;;;;;;;3.67;2.00;;;18.30;62.00;;;;;;5020041;28;20033;-47
2023/10/15 10:36:14;;;;;;;6.47;2.45;;;18.30;62.10;;;;;;5017621;28;20183;-49
2023/10/15 10:38:40;;;;;;;5.05;2.55;;;18.30;62.00;;;;;;5018115;28;20422;-49
2023/10/15 10:41:14;;;;;;;5.40;2.97;;;18.20;62.10;;;;;;5017460;28;20041;-49
2023/10/15 10:43:43;;;;;;;4.85;2.65;;;18.20;62.00;;;;;;5024434;28;20085;-49
2023/10/15 10:46:21;;;;;;;5.00;3.45;;;18.30;62.60;;;;;;5016996;28;20037;-46
2023/10/15 10:49:03;;;;;;;6.78;3.85;;;18.20;62.40;;;;;;5011832;28;20061;-48
2023/10/15 10:51:30;;;;;;;6.47;3.78;;;18.20;62.20;;;;;;5013032;28;20038;-48
2023/10/15 10:53:56;;;;;;;6.45;3.53;;;18.20;61.70;;;;;;5017012;28;20251;-49
2023/10/15 10:56:22;;;;;;;5.97;3.85;;;18.10;62.30;;;;;;5021563;28;20036;-47
2023/10/15 10:58:51;;;;;;;6.18;3.78;;;18.20;62.50;;;;;;5019003;28;20030;-46
2023/10/15 11:01:17;;;;;;;7.30;4.05;;;18.20;62.20;;;;;;5019611;28;20116;-48
2023/10/15 11:03:44;;;;;;;8.32;4.22;;;18.20;63.00;;;;;;5015095;28;20120;-48
2023/10/15 11:06:10;;;;;;;9.00;5.10;;;18.20;62.50;;;;;;5015580;28;20454;-47
2023/10/15 11:08:35;;;;;;;10.07;4.35;;;18.20;62.60;;;;;;5017293;28;20112;-51
2023/10/15 11:11:01;;;;;;;8.57;4.65;;;18.20;62.40;;;;;;5016888;28;20116;-47
2023/10/15 11:13:30;;;;;;;10.43;4.40;;;18.20;62.50;;;;;;5025153;28;20037;-49
2023/10/15 11:15:56;;;;;;;9.05;5.05;;;18.20;62.60;;;;;;5025394;28;20126;-47
2023/10/15 11:18:26;;;;;;;9.18;5.00;;;18.20;62.70;;;;;;5017578;28;20407;-47
2023/10/15 11:20:52;;;;;;;8.27;4.78;;;18.20;62.80;;;;;;5013730;28;20136;-46
2023/10/15 11:23:19;;;;;;;8.18;5.55;;;18.20;63.80;;;;;;5018499;28;20398;-47
2023/10/15 11:25:45;;;;;;;8.02;5.55;;;18.20;63.20;;;;;;5021418;28;20482;-46
2023/10/15 11:28:11;;;;;;;8.25;4.88;;;18.20;63.30;;;;;;5020702;28;20030;-47
2023/10/15 11:30:44;;;;;;;9.10;5.05;;;18.30;63.30;;;;;;5016182;28;20030;-47
2023/10/15 11:33:10;;;;;;;7.22;4.40;;;18.30;63.10;;;;;;5016190;28;20037;-49
2023/10/15 11:35:37;;;;;;;8.30;4.88;;;18.30;63.30;;;;;;5017763;28;20029;-53
2023/10/15 11:38:09;;;;;;;7.85;4.35;;;18.30;63.20;;;;;;5015141;28;20103;-47
2023/10/15 11:40:38;;;;;;;7.28;4.47;;;18.40;63.80;;;;;;5028069;28;20673;-48
2023/10/15 11:43:19;;;;;;;7.32;4.68;;;18.30;63.40;;;;;;5007615;28;20394;-48
2023/10/15 11:45:46;;;;;;;6.93;4.93;;;18.30;63.90;;;;;;5013832;28;20105;-47
2023/10/15 11:48:13;;;;;;;7.05;3.70;;;18.40;64.00;;;;;;5015925;28;20029;-47
2023/10/15 11:50:40;;;;;;;5.65;3.45;;;18.40;63.90;;;;;;5007678;28;20060;-47
2023/10/15 11:53:23;;;;;;;6.88;4.05;;;18.30;63.60;;;;;;5013078;28;20586;-49
2023/10/15 11:55:52;;;;;;;7.63;3.90;;;18.30;63.90;;;;;;5028052;28;20099;-46
2023/10/15 11:58:19;;;;;;;7.22;4.20;;;18.30;63.70;;;;;;5032902;28;20525;-48
2023/10/15 12:00:48;;;;;;;5.20;3.65;;;18.20;64.10;;;;;;5041753;28;20055;-49
2023/10/15 12:03:16;;;;;;;6.07;3.50;;;18.20;63.50;;;;;;5042033;28;20040;-48
2023/10/15 12:05:42;;;;;;;5.13;3.30;;;18.20;63.20;;;;;;5042693;28;20026;-48
2023/10/15 12:08:12;;;;;;;5.63;4.00;;;18.20;63.70;;;;;;5037532;28;20056;-49
2023/10/15 12:10:42;;;;;;;5.68;3.38;;;18.20;63.30;;;;;;5037485;28;20064;-47
2023/10/15 12:13:09;;;;;;;6.78;4.07;;;18.20;63.30;;;;;;5039374;28;20091;-49
2023/10/15 12:15:34;;;;;;;6.15;3.42;;;18.20;63.30;;;;;;5032987;28;20664;-49
2023/10/15 12:18:02;;;;;;;5.63;3.13;;;18.10;63.60;;;;;;5036250;28;20029;-48
2023/10/15 12:20:28;;;;;;;4.97;2.70;;;18.20;63.50;;;;;;5040818;28;20021;-48
2023/10/15 12:22:54;;;;;;;5.90;3.05;;;18.20;63.50;;;;;;5041552;28;20044;-47
2023/10/15 12:25:19;;;;;;;4.95;2.50;;;18.10;60.70;;;;;;5039028;28;20108;-48
2023/10/15 12:27:45;;;;;;;6.45;3.05;;;18.00;62.70;;;;;;5039530;28;20540;-54
2023/10/15 12:30:23;;;;;;;7.57;3.42;;;18.00;62.50;;;;;;5038665;28;20027;-47
2023/10/15 12:32:50;;;;;;;9.48;3.17;;;18.30;68.80;;;;;;5040226;28;20029;-49
2023/10/15 12:35:19;;;;;;;6.00;2.58;;;18.50;66.00;;;;;;5043303;28;20041;-45
2023/10/15 12:37:45;;;;;;;4.80;2.90;;;18.50;66.20;;;;;;5039980;28;20030;-50
2023/10/15 12:40:12;;;;;;;4.38;2.72;;;18.50;65.50;;;;;;5038667;28;20075;-49
2023/10/15 12:42:41;;;;;;;5.05;2.63;;;18.40;65.00;;;;;;5037020;28;20111;-47
2023/10/15 12:45:10;;;;;;;7.43;2.97;;;18.40;64.10;;;;;;5036988;28;20067;-47
2023/10/15 12:47:39;;;;;;;4.60;2.70;;;18.30;64.20;;;;;;5032796;28;20033;-50
2023/10/15 12:50:07;;;;;;;5.28;2.35;;;18.30;64.10;;;;;;5025676;28;20025;-52
2023/10/15 12:52:34;;;;;;;4.50;2.50;;;18.30;64.10;;;;;;5039697;28;20188;-47
2023/10/15 12:55:00;;;;;;;3.22;2.10;;;18.30;64.40;;;;;;5037277;28;20075;-47
2023/10/15 12:57:26;;;;;;;4.20;2.38;;;18.30;62.70;;;;;;5043192;28;20045;-49
2023/10/15 12:59:51;;;;;;;5.88;2.92;;;18.30;64.40;;;;;;5042753;28;20105;-47
2023/10/15 13:02:20;;;;;;;7.25;2.63;;;18.40;64.50;;;;;;5042443;28;21160;-50
2023/10/15 13:04:46;;;;;;;6.85;2.25;;;18.40;64.60;;;;;;5042688;28;20033;-47